createdAt,value
2018-09-04T00:00:53.956Z,1005.46
2018-09-04T00:01:53.906Z,1005.44
2018-09-04T00:02:54.024Z,1005.48
2018-09-04T00:03:53.956Z,1005.44
2018-09-04T00:04:53.954Z,1005.46
2018-09-04T00:05:53.960Z,1005.49
2018-09-04T00:06:54.027Z,1005.49
2018-09-04T00:07:53.960Z,1005.51
2018-09-04T00:08:54.033Z,1005.51
2018-09-04T00:09:53.957Z,1005.50
2018-09-04T00:10:53.972Z,1005.42
2018-09-04T00:11:54.029Z,1005.42
2018-09-04T00:12:54.033Z,1005.44
2018-09-04T00:13:54.030Z,1005.43
2018-09-04T00:14:54.009Z,1005.43
2018-09-04T00:15:53.963Z,1005.41
2018-09-04T00:16:54.033Z,1005.41
2018-09-04T00:17:53.968Z,1005.43
2018-09-04T00:18:53.996Z,1005.39
2018-09-04T00:19:54.034Z,1005.37
2018-09-04T00:20:54.041Z,1005.40
2018-09-04T00:21:54.037Z,1005.39
2018-09-04T00:22:54.069Z,1005.40
2018-09-04T00:23:53.977Z,1005.44
2018-09-04T00:24:54.040Z,1005.43
2018-09-04T00:25:53.977Z,1005.41
2018-09-04T00:26:54.044Z,1005.42
2018-09-04T00:27:53.972Z,1005.41
2018-09-04T00:28:54.008Z,1005.39
2018-09-04T00:29:54.045Z,1005.37
2018-09-04T00:30:53.975Z,1005.37
2018-09-04T00:31:53.981Z,1005.41
2018-09-04T00:32:54.046Z,1005.40
2018-09-04T00:33:53.981Z,1005.40
2018-09-04T00:34:53.977Z,1005.34
2018-09-04T00:35:53.980Z,1005.38
2018-09-04T00:36:53.927Z,1005.39
2018-09-04T00:37:54.048Z,1005.41
2018-09-04T00:38:53.983Z,1005.44
2018-09-04T00:39:54.047Z,1005.43
2018-09-04T00:40:54.084Z,1005.45
2018-09-04T00:41:53.936Z,1005.47
2018-09-04T00:42:53.985Z,1005.49
2018-09-04T00:43:54.051Z,1005.48
2018-09-04T00:44:54.054Z,1005.51
2018-09-04T00:45:53.983Z,1005.53
2018-09-04T00:46:54.069Z,1005.52
2018-09-04T00:47:53.990Z,1005.47
2018-09-04T00:48:54.058Z,1005.46
2018-09-04T00:49:54.057Z,1005.49
2018-09-04T00:50:54.061Z,1005.46
2018-09-04T00:51:54.060Z,1005.45
2018-09-04T00:52:54.007Z,1005.42
2018-09-04T00:53:53.995Z,1005.42
2018-09-04T00:54:54.060Z,1005.44
2018-09-04T00:55:53.995Z,1005.41
2018-09-04T00:56:54.034Z,1005.42
2018-09-04T00:57:53.997Z,1005.42
2018-09-04T00:58:54.075Z,1005.40
2018-09-04T00:59:53.926Z,1005.38
2018-09-04T01:00:53.927Z,1005.40
2018-09-04T01:01:53.931Z,1005.40
2018-09-04T01:02:53.939Z,1005.44
2018-09-04T01:03:53.954Z,1005.45
2018-09-04T01:04:53.962Z,1005.48
2018-09-04T01:05:54.029Z,1005.48
2018-09-04T01:06:54.026Z,1005.52
2018-09-04T01:07:53.960Z,1005.53
2018-09-04T01:08:54.024Z,1005.52
2018-09-04T01:09:54.064Z,1005.52
2018-09-04T01:10:53.978Z,1005.52
2018-09-04T01:11:54.086Z,1005.54
2018-09-04T01:12:53.981Z,1005.58
2018-09-04T01:13:53.981Z,1005.55
2018-09-04T01:14:54.063Z,1005.56
2018-09-04T01:15:53.981Z,1005.55
2018-09-04T01:16:53.998Z,1005.55
2018-09-04T01:17:54.075Z,1005.58
2018-09-04T01:18:53.981Z,1005.52
2018-09-04T01:19:53.996Z,1005.52
2018-09-04T01:20:54.020Z,1005.48
2018-09-04T01:21:54.031Z,1005.48
2018-09-04T01:22:54.072Z,1005.51
2018-09-04T01:23:54.066Z,1005.51
2018-09-04T01:24:54.075Z,1005.49
2018-09-04T01:25:53.984Z,1005.49
2018-09-04T01:26:54.069Z,1005.47
2018-09-04T01:27:54.111Z,1005.47
2018-09-04T01:28:53.985Z,1005.47
2018-09-04T01:29:54.006Z,1005.45
2018-09-04T01:30:53.990Z,1005.43
2018-09-04T01:31:53.990Z,1005.41
2018-09-04T01:32:53.992Z,1005.40
2018-09-04T01:33:54.000Z,1005.43
2018-09-04T01:34:53.998Z,1005.39
2018-09-04T01:35:53.996Z,1005.36
2018-09-04T01:36:53.996Z,1005.36
2018-09-04T01:37:53.997Z,1005.34
2018-09-04T01:38:53.995Z,1005.34
2018-09-04T01:39:54.099Z,1005.35
2018-09-04T01:40:54.024Z,1005.34
2018-09-04T01:41:54.092Z,1005.32
2018-09-04T01:42:54.094Z,1005.30
2018-09-04T01:43:54.095Z,1005.32
2018-09-04T01:44:54.030Z,1005.31
2018-09-04T01:45:54.028Z,1005.33
2018-09-04T01:46:54.097Z,1005.31
2018-09-04T01:47:54.040Z,1005.28
2018-09-04T01:48:54.099Z,1005.33
2018-09-04T01:49:54.094Z,1005.31
2018-09-04T01:50:54.005Z,1005.38
2018-09-04T01:51:54.095Z,1005.35
2018-09-04T01:52:54.013Z,1005.34
2018-09-04T01:53:54.159Z,1005.37
2018-09-04T01:54:54.093Z,1005.39
2018-09-04T01:55:54.005Z,1005.36
2018-09-04T01:56:54.094Z,1005.36
2018-09-04T01:57:54.104Z,1005.33
2018-09-04T01:58:54.009Z,1005.36
2018-09-04T01:59:54.106Z,1005.36
2018-09-04T02:00:54.044Z,1005.36
2018-09-04T02:01:53.992Z,1005.37
2018-09-04T02:02:54.038Z,1005.35
2018-09-04T02:03:54.065Z,1005.33
2018-09-04T02:04:58.508Z,1005.32
2018-09-04T02:05:54.110Z,1005.26
2018-09-04T02:06:54.062Z,1005.29
2018-09-04T02:07:54.112Z,1005.25
2018-09-04T02:08:54.112Z,1005.30
2018-09-04T02:09:54.019Z,1005.26
2018-09-04T02:10:54.101Z,1005.27
2018-09-04T02:11:54.112Z,1005.28
2018-09-04T02:12:54.020Z,1005.27
2018-09-04T02:13:54.026Z,1005.30
2018-09-04T02:14:54.109Z,1005.33
2018-09-04T02:15:54.105Z,1005.30
2018-09-04T02:16:54.111Z,1005.33
2018-09-04T02:17:54.111Z,1005.35
2018-09-04T02:18:54.027Z,1005.34
2018-09-04T02:19:54.054Z,1005.33
2018-09-04T02:20:54.046Z,1005.35
2018-09-04T02:21:53.950Z,1005.35
2018-09-04T02:22:53.981Z,1005.33
2018-09-04T02:23:54.003Z,1005.30
2018-09-04T02:24:54.066Z,1005.29
2018-09-04T02:25:54.052Z,1005.29
2018-09-04T02:26:53.946Z,1005.27
2018-09-04T02:27:54.055Z,1005.31
2018-09-04T02:28:54.031Z,1005.30
2018-09-04T02:29:54.071Z,1005.31
2018-09-04T02:30:54.127Z,1005.27
2018-09-04T02:31:54.137Z,1005.28
2018-09-04T02:32:54.080Z,1005.27
2018-09-04T02:33:54.067Z,1005.27
2018-09-04T02:34:54.106Z,1005.29
2018-09-04T02:35:54.131Z,1005.28
2018-09-04T02:36:54.098Z,1005.30
2018-09-04T02:37:54.114Z,1005.31
2018-09-04T02:38:54.080Z,1005.31
2018-09-04T02:39:54.101Z,1005.35
2018-09-04T02:40:54.070Z,1005.35
2018-09-04T02:41:54.141Z,1005.37
2018-09-04T02:42:54.082Z,1005.37
2018-09-04T02:43:54.138Z,1005.35
2018-09-04T02:44:54.140Z,1005.35
2018-09-04T02:45:54.140Z,1005.34
2018-09-04T02:46:54.074Z,1005.31
2018-09-04T02:47:54.141Z,1005.33
2018-09-04T02:48:54.072Z,1005.33
2018-09-04T02:49:54.074Z,1005.33
2018-09-04T02:50:54.080Z,1005.32
2018-09-04T02:51:54.079Z,1005.33
2018-09-04T02:52:54.081Z,1005.31
2018-09-04T02:53:54.137Z,1005.29
2018-09-04T02:54:54.042Z,1005.29
2018-09-04T02:55:54.079Z,1005.32
2018-09-04T02:56:54.146Z,1005.25
2018-09-04T02:57:54.147Z,1005.27
2018-09-04T02:58:54.082Z,1005.25
2018-09-04T02:59:54.092Z,1005.23
2018-09-04T03:00:54.083Z,1005.21
2018-09-04T03:01:54.150Z,1005.26
2018-09-04T03:02:54.086Z,1005.21
2018-09-04T03:03:54.155Z,1005.22
2018-09-04T03:04:54.084Z,1005.24
2018-09-04T03:05:54.097Z,1005.24
2018-09-04T03:06:54.152Z,1005.25
2018-09-04T03:07:54.175Z,1005.30
2018-09-04T03:08:54.163Z,1005.24
2018-09-04T03:09:54.089Z,1005.27
2018-09-04T03:10:54.167Z,1005.28
2018-09-04T03:11:54.111Z,1005.27
2018-09-04T03:12:54.090Z,1005.29
2018-09-04T03:13:54.275Z,1005.26
2018-09-04T03:14:54.161Z,1005.32
2018-09-04T03:15:54.043Z,1005.33
2018-09-04T03:16:54.095Z,1005.34
2018-09-04T03:17:54.161Z,1005.36
2018-09-04T03:18:54.127Z,1005.38
2018-09-04T03:19:54.096Z,1005.40
2018-09-04T03:20:54.163Z,1005.41
2018-09-04T03:21:54.095Z,1005.43
2018-09-04T03:22:54.160Z,1005.43
2018-09-04T03:23:54.166Z,1005.40
2018-09-04T03:24:54.100Z,1005.39
2018-09-04T03:25:54.168Z,1005.38
2018-09-04T03:26:54.104Z,1005.37
2018-09-04T03:27:54.168Z,1005.35
2018-09-04T03:28:54.104Z,1005.36
2018-09-04T03:29:54.168Z,1005.35
2018-09-04T03:30:54.168Z,1005.35
2018-09-04T03:31:54.188Z,1005.38
2018-09-04T03:32:54.173Z,1005.41
2018-09-04T03:33:54.110Z,1005.38
2018-09-04T03:34:54.174Z,1005.40
2018-09-04T03:35:54.111Z,1005.43
2018-09-04T03:36:54.187Z,1005.38
2018-09-04T03:37:54.115Z,1005.36
2018-09-04T03:38:54.108Z,1005.41
2018-09-04T03:39:54.106Z,1005.42
2018-09-04T03:40:54.177Z,1005.41
2018-09-04T03:41:54.185Z,1005.42
2018-09-04T03:42:54.108Z,1005.43
2018-09-04T03:43:54.070Z,1005.43
2018-09-04T03:44:54.116Z,1005.43
2018-09-04T03:45:54.118Z,1005.41
2018-09-04T03:46:54.185Z,1005.44
2018-09-04T03:47:54.139Z,1005.43
2018-09-04T03:48:54.183Z,1005.43
2018-09-04T03:49:54.120Z,1005.44
2018-09-04T03:50:54.185Z,1005.41
2018-09-04T03:51:54.185Z,1005.40
2018-09-04T03:52:54.122Z,1005.35
2018-09-04T03:53:54.121Z,1005.39
2018-09-04T03:54:54.119Z,1005.40
2018-09-04T03:55:54.188Z,1005.38
2018-09-04T03:56:54.120Z,1005.44
2018-09-04T03:57:54.194Z,1005.41
2018-09-04T03:58:54.190Z,1005.42
2018-09-04T03:59:54.181Z,1005.41
2018-09-04T04:00:54.095Z,1005.41
2018-09-04T04:01:54.093Z,1005.46
2018-09-04T04:02:54.133Z,1005.44
2018-09-04T04:03:54.183Z,1005.48
2018-09-04T04:04:54.183Z,1005.44
2018-09-04T04:05:54.184Z,1005.49
2018-09-04T04:06:54.185Z,1005.53
2018-09-04T04:07:54.099Z,1005.45
2018-09-04T04:08:54.138Z,1005.49
2018-09-04T04:09:54.132Z,1005.49
2018-09-04T04:10:54.199Z,1005.52
2018-09-04T04:11:54.213Z,1005.54
2018-09-04T04:12:54.141Z,1005.53
2018-09-04T04:13:54.200Z,1005.57
2018-09-04T04:14:54.203Z,1005.56
2018-09-04T04:15:54.139Z,1005.57
2018-09-04T04:16:54.204Z,1005.63
2018-09-04T04:17:54.133Z,1005.61
2018-09-04T04:18:54.140Z,1005.58
2018-09-04T04:19:54.133Z,1005.59
2018-09-04T04:20:54.152Z,1005.58
2018-09-04T04:21:54.206Z,1005.58
2018-09-04T04:22:54.142Z,1005.57
2018-09-04T04:23:54.276Z,1005.54
2018-09-04T04:24:54.207Z,1005.53
2018-09-04T04:25:54.213Z,1005.54
2018-09-04T04:26:54.146Z,1005.56
2018-09-04T04:27:54.096Z,1005.59
2018-09-04T04:28:54.215Z,1005.52
2018-09-04T04:29:54.027Z,1005.57
2018-09-04T04:30:54.096Z,1005.56
2018-09-04T04:31:54.071Z,1005.53
2018-09-04T04:32:54.130Z,1005.57
2018-09-04T04:33:54.036Z,1005.54
2018-09-04T04:34:54.035Z,1005.53
2018-09-04T04:35:54.120Z,1005.53
2018-09-04T04:36:54.087Z,1005.51
2018-09-04T04:37:54.109Z,1005.52
2018-09-04T04:38:54.077Z,1005.53
2018-09-04T04:39:54.195Z,1005.53
2018-09-04T04:40:54.208Z,1005.53
2018-09-04T04:41:54.117Z,1005.54
2018-09-04T04:42:54.127Z,1005.56
2018-09-04T04:43:54.118Z,1005.58
2018-09-04T04:44:54.161Z,1005.53
2018-09-04T04:45:54.122Z,1005.60
2018-09-04T04:46:54.215Z,1005.64
2018-09-04T04:47:54.236Z,1005.60
2018-09-04T04:48:54.157Z,1005.62
2018-09-04T04:49:54.212Z,1005.60
2018-09-04T04:50:54.219Z,1005.60
2018-09-04T04:51:54.125Z,1005.61
2018-09-04T04:52:54.220Z,1005.60
2018-09-04T04:53:54.219Z,1005.59
2018-09-04T04:54:54.184Z,1005.61
2018-09-04T04:55:54.218Z,1005.60
2018-09-04T04:56:54.132Z,1005.62
2018-09-04T04:57:54.220Z,1005.64
2018-09-04T04:58:54.144Z,1005.63
2018-09-04T04:59:54.162Z,1005.65
2018-09-04T05:00:54.232Z,1005.65
2018-09-04T05:01:54.185Z,1005.62
2018-09-04T05:02:54.246Z,1005.64
2018-09-04T05:03:54.247Z,1005.65
2018-09-04T05:04:54.171Z,1005.67
2018-09-04T05:05:54.264Z,1005.65
2018-09-04T05:06:54.237Z,1005.68
2018-09-04T05:07:54.166Z,1005.68
2018-09-04T05:08:54.246Z,1005.70
2018-09-04T05:09:54.250Z,1005.67
2018-09-04T05:10:54.260Z,1005.66
2018-09-04T05:11:54.274Z,1005.69
2018-09-04T05:12:54.167Z,1005.67
2018-09-04T05:13:54.240Z,1005.64
2018-09-04T05:14:54.245Z,1005.63
2018-09-04T05:15:54.182Z,1005.66
2018-09-04T05:16:54.170Z,1005.65
2018-09-04T05:17:54.243Z,1005.64
2018-09-04T05:18:54.170Z,1005.66
2018-09-04T05:19:54.160Z,1005.62
2018-09-04T05:20:54.236Z,1005.62
2018-09-04T05:21:54.244Z,1005.62
2018-09-04T05:22:54.157Z,1005.63
2018-09-04T05:23:54.110Z,1005.64
2018-09-04T05:24:54.234Z,1005.62
2018-09-04T05:25:54.154Z,1005.62
2018-09-04T05:26:54.233Z,1005.63
2018-09-04T05:27:54.152Z,1005.69
2018-09-04T05:28:54.153Z,1005.68
2018-09-04T05:29:54.259Z,1005.69
2018-09-04T05:30:54.178Z,1005.68
2018-09-04T05:31:54.255Z,1005.72
2018-09-04T05:32:54.185Z,1005.72
2018-09-04T05:33:54.256Z,1005.69
2018-09-04T05:34:54.256Z,1005.69
2018-09-04T05:35:54.257Z,1005.73
2018-09-04T05:36:54.315Z,1005.70
2018-09-04T05:37:54.189Z,1005.73
2018-09-04T05:38:54.259Z,1005.73
2018-09-04T05:39:54.255Z,1005.74
2018-09-04T05:40:54.185Z,1005.72
2018-09-04T05:41:54.155Z,1005.74
2018-09-04T05:42:54.141Z,1005.72
2018-09-04T05:43:54.234Z,1005.71
2018-09-04T05:44:54.237Z,1005.74
2018-09-04T05:45:54.143Z,1005.74
2018-09-04T05:46:54.124Z,1005.75
2018-09-04T05:47:54.126Z,1005.75
2018-09-04T05:48:54.230Z,1005.75
2018-09-04T05:49:54.200Z,1005.74
2018-09-04T05:50:54.213Z,1005.75
2018-09-04T05:51:54.280Z,1005.70
2018-09-04T05:52:54.167Z,1005.71
2018-09-04T05:53:54.285Z,1005.74
2018-09-04T05:54:54.238Z,1005.70
2018-09-04T05:55:54.123Z,1005.76
2018-09-04T05:56:54.120Z,1005.74
2018-09-04T05:57:54.169Z,1005.74
2018-09-04T05:58:54.168Z,1005.79
2018-09-04T05:59:54.118Z,1005.76
2018-09-04T06:00:54.159Z,1005.77
2018-09-04T06:01:54.245Z,1005.77
2018-09-04T06:02:54.126Z,1005.81
2018-09-04T06:03:54.170Z,1005.78
2018-09-04T06:04:54.171Z,1005.77
2018-09-04T06:05:54.180Z,1005.80
2018-09-04T06:06:54.171Z,1005.81
2018-09-04T06:07:54.126Z,1005.80
2018-09-04T06:08:54.128Z,1005.82
2018-09-04T06:09:54.128Z,1005.80
2018-09-04T06:10:54.178Z,1005.81
2018-09-04T06:11:54.230Z,1005.78
2018-09-04T06:12:54.133Z,1005.77
2018-09-04T06:13:54.232Z,1005.73
2018-09-04T06:14:54.134Z,1005.75
2018-09-04T06:15:54.132Z,1005.70
2018-09-04T06:16:54.137Z,1005.71
2018-09-04T06:17:54.186Z,1005.71
2018-09-04T06:18:54.142Z,1005.68
2018-09-04T06:19:54.250Z,1005.70
2018-09-04T06:20:54.186Z,1005.68
2018-09-04T06:21:54.173Z,1005.67
2018-09-04T06:22:54.258Z,1005.67
2018-09-04T06:23:54.194Z,1005.68
2018-09-04T06:24:54.194Z,1005.67
2018-09-04T06:25:54.276Z,1005.63
2018-09-04T06:26:54.256Z,1005.66
2018-09-04T06:27:54.281Z,1005.60
2018-09-04T06:28:54.280Z,1005.60
2018-09-04T06:29:54.230Z,1005.57
2018-09-04T06:30:54.287Z,1005.55
2018-09-04T06:31:54.233Z,1005.58
2018-09-04T06:32:54.182Z,1005.55
2018-09-04T06:33:54.313Z,1005.57
2018-09-04T06:34:54.318Z,1005.58
2018-09-04T06:35:54.291Z,1005.57
2018-09-04T06:36:54.199Z,1005.55
2018-09-04T06:37:54.293Z,1005.57
2018-09-04T06:38:54.181Z,1005.59
2018-09-04T06:39:54.233Z,1005.60
2018-09-04T06:40:54.305Z,1005.62
2018-09-04T06:41:54.231Z,1005.66
2018-09-04T06:42:54.310Z,1005.64
2018-09-04T06:43:54.235Z,1005.65
2018-09-04T06:44:54.239Z,1005.68
2018-09-04T06:45:54.234Z,1005.68
2018-09-04T06:46:54.306Z,1005.71
2018-09-04T06:47:54.240Z,1005.73
2018-09-04T06:48:54.326Z,1005.71
2018-09-04T06:49:54.269Z,1005.72
2018-09-04T06:50:54.206Z,1005.77
2018-09-04T06:51:54.214Z,1005.75
2018-09-04T06:52:54.322Z,1005.74
2018-09-04T06:53:54.258Z,1005.79
2018-09-04T06:54:54.213Z,1005.76
2018-09-04T06:55:54.288Z,1005.81
2018-09-04T06:56:54.214Z,1005.83
2018-09-04T06:57:54.288Z,1005.85
2018-09-04T06:58:54.259Z,1005.84
2018-09-04T06:59:54.168Z,1005.85
2018-09-04T07:00:54.249Z,1005.85
2018-09-04T07:01:54.318Z,1005.86
2018-09-04T07:02:54.248Z,1005.90
2018-09-04T07:03:54.254Z,1005.90
2018-09-04T07:04:54.200Z,1005.86
2018-09-04T07:05:54.364Z,1005.89
2018-09-04T07:06:54.321Z,1005.90
2018-09-04T07:07:54.250Z,1005.89
2018-09-04T07:08:54.199Z,1005.89
2018-09-04T07:09:54.253Z,1005.91
2018-09-04T07:10:54.295Z,1005.92
2018-09-04T07:11:54.325Z,1005.93
2018-09-04T07:12:54.259Z,1005.94
2018-09-04T07:13:54.324Z,1005.96
2018-09-04T07:14:54.385Z,1005.97
2018-09-04T07:15:54.328Z,1005.98
2018-09-04T07:16:54.296Z,1005.98
2018-09-04T07:17:54.330Z,1005.97
2018-09-04T07:18:54.331Z,1005.96
2018-09-04T07:19:54.334Z,1006.01
2018-09-04T07:20:54.260Z,1006.00
2018-09-04T07:21:54.236Z,1006.01
2018-09-04T07:22:54.301Z,1006.02
2018-09-04T07:23:54.260Z,1006.02
2018-09-04T07:24:54.303Z,1005.99
2018-09-04T07:25:54.288Z,1005.98
2018-09-04T07:26:54.325Z,1005.99
2018-09-04T07:27:54.236Z,1005.97
2018-09-04T07:28:54.286Z,1005.95
2018-09-04T07:29:54.287Z,1005.95
2018-09-04T07:30:54.300Z,1005.95
2018-09-04T07:31:54.205Z,1005.91
2018-09-04T07:32:54.300Z,1005.92
2018-09-04T07:33:54.224Z,1005.92
2018-09-04T07:34:54.222Z,1005.92
2018-09-04T07:35:54.203Z,1005.93
2018-09-04T07:36:54.203Z,1005.92
2018-09-04T07:37:54.271Z,1005.92
2018-09-04T07:38:54.228Z,1005.96
2018-09-04T07:39:54.305Z,1005.98
2018-09-04T07:40:54.343Z,1005.95
2018-09-04T07:41:54.284Z,1006.02
2018-09-04T07:42:54.279Z,1006.02
2018-09-04T07:43:54.397Z,1006.04
2018-09-04T07:44:54.507Z,1006.08
2018-09-04T07:45:54.361Z,1006.05
2018-09-04T07:46:54.273Z,1006.07
2018-09-04T07:47:54.350Z,1006.04
2018-09-04T07:48:54.275Z,1006.05
2018-09-04T07:49:54.353Z,1006.08
2018-09-04T07:50:54.229Z,1006.04
2018-09-04T07:51:54.217Z,1006.01
2018-09-04T07:52:54.249Z,1006.07
2018-09-04T07:53:54.380Z,1006.05
2018-09-04T07:54:54.256Z,1006.01
2018-09-04T07:55:54.255Z,1006.03
2018-09-04T07:56:54.254Z,1006.01
2018-09-04T07:57:54.303Z,1005.99
2018-09-04T07:58:54.264Z,1006.02
2018-09-04T07:59:54.348Z,1006.03
2018-09-04T08:00:54.393Z,1005.98
2018-09-04T08:01:54.248Z,1006.00
2018-09-04T08:02:54.364Z,1005.99
2018-09-04T08:03:54.297Z,1005.98
2018-09-04T08:04:54.360Z,1005.97
2018-09-04T08:05:54.365Z,1005.97
2018-09-04T08:06:54.292Z,1005.93
2018-09-04T08:07:54.363Z,1005.93
2018-09-04T08:08:54.365Z,1005.95
2018-09-04T08:09:54.440Z,1005.95
2018-09-04T08:10:54.323Z,1005.94
2018-09-04T08:11:54.331Z,1005.95
2018-09-04T08:12:54.370Z,1005.96
2018-09-04T08:13:54.367Z,1005.90
2018-09-04T08:14:54.295Z,1005.92
2018-09-04T08:15:54.307Z,1005.91
2018-09-04T08:16:54.320Z,1005.91
2018-09-04T08:17:54.373Z,1005.91
2018-09-04T08:18:54.331Z,1005.88
2018-09-04T08:19:54.375Z,1005.91
2018-09-04T08:20:54.474Z,1005.90
2018-09-04T08:21:54.332Z,1005.88
2018-09-04T08:22:54.326Z,1005.90
2018-09-04T08:23:54.337Z,1005.85
2018-09-04T08:24:54.243Z,1005.84
2018-09-04T08:25:54.338Z,1005.85
2018-09-04T08:26:54.236Z,1005.81
2018-09-04T08:27:54.307Z,1005.83
2018-09-04T08:28:54.310Z,1005.85
2018-09-04T08:29:54.340Z,1005.81
2018-09-04T08:30:54.305Z,1005.78
2018-09-04T08:31:54.333Z,1005.80
2018-09-04T08:32:54.325Z,1005.79
2018-09-04T08:33:54.268Z,1005.77
2018-09-04T08:34:54.267Z,1005.77
2018-09-04T08:35:54.289Z,1005.76
2018-09-04T08:36:54.322Z,1005.73
2018-09-04T08:37:54.271Z,1005.75
2018-09-04T08:38:54.368Z,1005.74
2018-09-04T08:39:54.410Z,1005.72
2018-09-04T08:40:54.376Z,1005.67
2018-09-04T08:41:54.328Z,1005.71
2018-09-04T08:42:54.324Z,1005.68
2018-09-04T08:43:54.297Z,1005.73
2018-09-04T08:44:54.294Z,1005.70
2018-09-04T08:45:54.296Z,1005.72
2018-09-04T08:46:54.362Z,1005.72
2018-09-04T08:47:54.390Z,1005.71
2018-09-04T08:48:54.273Z,1005.74
2018-09-04T08:49:54.275Z,1005.74
2018-09-04T08:50:54.294Z,1005.67
2018-09-04T08:51:54.371Z,1005.70
2018-09-04T08:52:54.285Z,1005.67
2018-09-04T08:53:54.281Z,1005.66
2018-09-04T08:54:54.330Z,1005.66
2018-09-04T08:55:54.382Z,1005.66
2018-09-04T08:56:54.360Z,1005.64
2018-09-04T08:57:54.284Z,1005.63
2018-09-04T08:58:54.285Z,1005.63
2018-09-04T08:59:54.260Z,1005.64
2018-09-04T09:00:54.370Z,1005.63
2018-09-04T09:01:54.300Z,1005.59
2018-09-04T09:02:54.393Z,1005.58
2018-09-04T09:03:54.415Z,1005.53
2018-09-04T09:04:54.373Z,1005.54
2018-09-04T09:05:54.389Z,1005.54
2018-09-04T09:06:54.464Z,1005.58
2018-09-04T09:07:54.306Z,1005.57
2018-09-04T09:08:54.396Z,1005.57
2018-09-04T09:09:54.351Z,1005.61
2018-09-04T09:10:54.344Z,1005.56
2018-09-04T09:11:54.448Z,1005.59
2018-09-04T09:12:54.335Z,1005.61
2018-09-04T09:13:54.337Z,1005.61
2018-09-04T09:14:54.339Z,1005.62
2018-09-04T09:15:54.414Z,1005.59
2018-09-04T09:16:54.413Z,1005.58
2018-09-04T09:17:54.342Z,1005.59
2018-09-04T09:18:54.414Z,1005.58
2018-09-04T09:19:54.342Z,1005.60
2018-09-04T09:20:54.293Z,1005.49
2018-09-04T09:21:54.322Z,1005.50
2018-09-04T09:22:54.396Z,1005.48
2018-09-04T09:23:54.354Z,1005.47
2018-09-04T09:24:54.402Z,1005.49
2018-09-04T09:25:54.275Z,1005.48
2018-09-04T09:26:54.324Z,1005.47
2018-09-04T09:27:54.327Z,1005.43
2018-09-04T09:28:54.427Z,1005.42
2018-09-04T09:29:54.387Z,1005.45
2018-09-04T09:30:54.303Z,1005.41
2018-09-04T09:31:54.379Z,1005.43
2018-09-04T09:32:54.367Z,1005.44
2018-09-04T09:33:54.376Z,1005.42
2018-09-04T09:34:54.416Z,1005.44
2018-09-04T09:35:54.391Z,1005.42
2018-09-04T09:36:54.347Z,1005.51
2018-09-04T09:37:54.328Z,1005.48
2018-09-04T09:38:54.309Z,1005.48
2018-09-04T09:39:54.452Z,1005.50
2018-09-04T09:40:54.390Z,1005.46
2018-09-04T09:41:54.391Z,1005.49
2018-09-04T09:42:54.325Z,1005.50
2018-09-04T09:43:54.288Z,1005.54
2018-09-04T09:44:54.317Z,1005.44
2018-09-04T09:45:54.326Z,1005.46
2018-09-04T09:46:54.394Z,1005.46
2018-09-04T09:47:54.296Z,1005.47
2018-09-04T09:48:54.362Z,1005.47
2018-09-04T09:49:54.298Z,1005.46
2018-09-04T09:50:54.287Z,1005.45
2018-09-04T09:51:54.287Z,1005.42
2018-09-04T09:52:54.450Z,1005.43
2018-09-04T09:53:54.310Z,1005.39
2018-09-04T09:54:54.338Z,1005.38
2018-09-04T09:55:54.385Z,1005.36
2018-09-04T09:56:54.341Z,1005.31
2018-09-04T09:57:54.291Z,1005.29
2018-09-04T09:58:54.339Z,1005.29
2018-09-04T09:59:54.309Z,1005.27
2018-09-04T10:00:54.467Z,1005.30
2018-09-04T10:01:54.381Z,1005.27
2018-09-04T10:02:54.446Z,1005.23
2018-09-04T10:03:54.400Z,1005.24
2018-09-04T10:04:54.447Z,1005.23
2018-09-04T10:05:54.411Z,1005.24
2018-09-04T10:06:54.392Z,1005.25
2018-09-04T10:07:54.676Z,1005.24
2018-09-04T10:08:54.381Z,1005.22
2018-09-04T10:09:54.395Z,1005.21
2018-09-04T10:10:54.337Z,1005.20
2018-09-04T10:11:54.323Z,1005.18
2018-09-04T10:12:54.377Z,1005.17
2018-09-04T10:13:54.414Z,1005.16
2018-09-04T10:14:54.311Z,1005.16
2018-09-04T10:15:54.314Z,1005.19
2018-09-04T10:16:54.417Z,1005.16
2018-09-04T10:17:54.416Z,1005.18
2018-09-04T10:18:54.318Z,1005.13
2018-09-04T10:19:54.383Z,1005.15
2018-09-04T10:20:54.353Z,1005.12
2018-09-04T10:21:54.320Z,1005.10
2018-09-04T10:22:54.317Z,1005.11
2018-09-04T10:23:54.322Z,1005.11
2018-09-04T10:24:54.413Z,1005.07
2018-09-04T10:25:54.350Z,1005.08
2018-09-04T10:26:54.442Z,1005.07
2018-09-04T10:27:54.416Z,1005.04
2018-09-04T10:28:54.416Z,1005.01
2018-09-04T10:29:54.384Z,1005.00
2018-09-04T10:30:54.400Z,1005.02
2018-09-04T10:31:54.397Z,1005.00
2018-09-04T10:32:54.407Z,1004.97
2018-09-04T10:33:54.401Z,1004.94
2018-09-04T10:34:54.468Z,1004.96
2018-09-04T10:35:54.469Z,1004.93
2018-09-04T10:36:54.397Z,1004.91
2018-09-04T10:37:54.471Z,1004.90
2018-09-04T10:38:54.400Z,1004.86
2018-09-04T10:39:54.472Z,1004.87
2018-09-04T10:40:54.333Z,1004.87
2018-09-04T10:41:54.434Z,1004.83
2018-09-04T10:42:54.425Z,1004.84
2018-09-04T10:43:54.365Z,1004.81
2018-09-04T10:44:54.359Z,1004.88
2018-09-04T10:45:54.368Z,1004.83
2018-09-04T10:46:54.434Z,1004.82
2018-09-04T10:47:54.461Z,1004.85
2018-09-04T10:48:54.437Z,1004.82
2018-09-04T10:49:54.433Z,1004.82
2018-09-04T10:50:54.414Z,1004.83
2018-09-04T10:51:54.463Z,1004.79
2018-09-04T10:52:54.409Z,1004.77
2018-09-04T10:53:54.442Z,1004.79
2018-09-04T10:54:54.462Z,1004.77
2018-09-04T10:55:54.375Z,1004.77
2018-09-04T10:56:54.415Z,1004.72
2018-09-04T10:57:54.564Z,1004.71
2018-09-04T10:58:54.356Z,1004.71
2018-09-04T10:59:54.342Z,1004.68
2018-09-04T11:00:54.414Z,1004.68
2018-09-04T11:01:54.486Z,1004.66
2018-09-04T11:02:54.429Z,1004.67
2018-09-04T11:03:54.498Z,1004.60
2018-09-04T11:04:54.421Z,1004.59
2018-09-04T11:05:54.590Z,1004.57
2018-09-04T11:06:54.419Z,1004.61
2018-09-04T11:07:54.493Z,1004.60
2018-09-04T11:08:54.451Z,1004.61
2018-09-04T11:09:54.551Z,1004.59
2018-09-04T11:10:54.350Z,1004.61
2018-09-04T11:11:54.352Z,1004.65
2018-09-04T11:12:54.458Z,1004.66
2018-09-04T11:13:54.393Z,1004.62
2018-09-04T11:14:54.460Z,1004.67
2018-09-04T11:15:54.368Z,1004.63
2018-09-04T11:16:54.400Z,1004.65
2018-09-04T11:17:54.378Z,1004.63
2018-09-04T11:18:54.442Z,1004.62
2018-09-04T11:19:54.442Z,1004.64
2018-09-04T11:20:54.499Z,1004.57
2018-09-04T11:21:54.432Z,1004.56
2018-09-04T11:22:54.430Z,1004.60
2018-09-04T11:23:54.503Z,1004.58
2018-09-04T11:24:54.430Z,1004.58
2018-09-04T11:25:54.504Z,1004.58
2018-09-04T11:26:54.434Z,1004.54
2018-09-04T11:27:54.472Z,1004.60
2018-09-04T11:28:54.510Z,1004.55
2018-09-04T11:29:54.436Z,1004.55
2018-09-04T11:30:54.437Z,1004.57
2018-09-04T11:31:54.511Z,1004.50
2018-09-04T11:32:54.436Z,1004.49
2018-09-04T11:33:54.509Z,1004.48
2018-09-04T11:34:54.433Z,1004.47
2018-09-04T11:35:54.514Z,1004.46
2018-09-04T11:36:54.441Z,1004.47
2018-09-04T11:37:54.517Z,1004.45
2018-09-04T11:38:54.438Z,1004.43
2018-09-04T11:39:54.516Z,1004.44
2018-09-04T11:40:54.543Z,1004.47
2018-09-04T11:41:54.516Z,1004.50
2018-09-04T11:42:54.450Z,1004.50
2018-09-04T11:43:54.516Z,1004.52
2018-09-04T11:44:54.549Z,1004.52
2018-09-04T11:45:54.447Z,1004.54
2018-09-04T11:46:54.476Z,1004.50
2018-09-04T11:47:54.519Z,1004.51
2018-09-04T11:48:54.468Z,1004.48
2018-09-04T11:49:54.522Z,1004.49
2018-09-04T11:50:54.389Z,1004.46
2018-09-04T11:51:54.415Z,1004.50
2018-09-04T11:52:54.376Z,1004.46
2018-09-04T11:53:54.479Z,1004.43
2018-09-04T11:54:54.479Z,1004.42
2018-09-04T11:55:54.382Z,1004.43
2018-09-04T11:56:54.435Z,1004.44
2018-09-04T11:57:54.383Z,1004.41
2018-09-04T11:58:54.479Z,1004.46
2018-09-04T11:59:54.452Z,1004.44
2018-09-04T12:00:54.408Z,1004.43
2018-09-04T12:01:54.380Z,1004.44
2018-09-04T12:02:54.481Z,1004.50
2018-09-04T12:03:54.419Z,1004.51
2018-09-04T12:04:54.487Z,1004.52
2018-09-04T12:05:54.555Z,1004.51